Etusivu
METAR-TAF:

METAR-TAF

Lentoasemat :

Rabat, Marokko

Leveyspiiri: 34-03N, Pituuspiiri: 006-46W, korkeus merenpinnasta: 84 m

Tämänhetkinen sää

Tämä raportti tehtiin 36 minuuttia sitten, kello 18.30 UTC
Tuuli 12 kn pohjoisesta/koillisesta
Lämpötila 26°C
Kosteus 45%
Ilmanpaine 1018 hPa
Näkyvyys: 8000 m

METAR: GMME 231830Z 02012KT 8000 NSC 26/13 Q1018 NOSIG

Aika: 19:06 (19:06 UTC)

Sääennuste

Tämä raportti tehtiin 2 tuntia ja 6 minuuttia sitten, kello 17.00 UTC
Ennuste voimassa 23. päivästä klo 18 UTC - 24. päivään klo 24 UTC
Tuuli 10 kn idästä
Näkyvyys: 6000 m
Ajoittain
24. päivästä klo 02 UTC - 24. päivään klo 06 UTC
Tuuli 8 kn kaakosta
Hajanaisia pilviä 1500 ft:n korkeudessa

TAF: GMME 231700Z 2318/2424 08010KT 6000 NSC TEMPO 2402/2406 14008KT SCT015

Säähavainnot ja -ennusteet yli 4000 lentoasemalta (METAR- ja TAF-raportit).

Käytössä olevat sääasemat on merkitty karttaan keltaisilla ja punaisilla pisteillä.

Aseta hiiri pisteen päälle nähdäksesi sääaseman nimen.

Klikkaa sitten nähdäksesi säähavainnot ja -ennusteet.

Kartan vaihtaminen: klikkaa mustalla rastilla varustettuja vihreitä pisteitä, niin voit zoomata sisään; viivalla varustettua vihreää pistettä, niin voit zoomata ulos tai vihreitä nuolia, niin pääset viereisille kartoille.


METAR-TAF: